sensor_id;sensor_type;location;lat;lon;timestamp;P1;durP1;ratioP1;P2;durP2;ratioP2
8462;SDS011;4268;52.506;13.462;2023-06-10T00:01:45;6.93;;;4.83;;
8462;SDS011;4268;52.506;13.462;2023-06-10T00:04:14;5.20;;;4.60;;
8462;SDS011;4268;52.506;13.462;2023-06-10T00:06:41;5.40;;;4.80;;
8462;SDS011;4268;52.506;13.462;2023-06-10T00:09:06;5.37;;;4.87;;
8462;SDS011;4268;52.506;13.462;2023-06-10T00:11:35;5.40;;;4.87;;
8462;SDS011;4268;52.506;13.462;2023-06-10T00:14:01;5.93;;;5.43;;
8462;SDS011;4268;52.506;13.462;2023-06-10T00:16:27;5.97;;;5.47;;
8462;SDS011;4268;52.506;13.462;2023-06-10T00:18:53;5.47;;;5.07;;
8462;SDS011;4268;52.506;13.462;2023-06-10T00:21:26;6.63;;;6.03;;
8462;SDS011;4268;52.506;13.462;2023-06-10T00:23:53;5.27;;;4.87;;
8462;SDS011;4268;52.506;13.462;2023-06-10T00:26:20;7.10;;;5.33;;
8462;SDS011;4268;52.506;13.462;2023-06-10T00:28:46;5.97;;;5.47;;
8462;SDS011;4268;52.506;13.462;2023-06-10T00:31:12;6.87;;;4.90;;
8462;SDS011;4268;52.506;13.462;2023-06-10T00:33:37;5.43;;;4.93;;
8462;SDS011;4268;52.506;13.462;2023-06-10T00:36:03;5.20;;;4.80;;
8462;SDS011;4268;52.506;13.462;2023-06-10T00:38:28;5.90;;;5.30;;
8462;SDS011;4268;52.506;13.462;2023-06-10T00:40:54;4.87;;;4.47;;
8462;SDS011;4268;52.506;13.462;2023-06-10T00:43:20;5.23;;;4.70;;
8462;SDS011;4268;52.506;13.462;2023-06-10T00:45:45;5.43;;;4.93;;
8462;SDS011;4268;52.506;13.462;2023-06-10T00:48:11;5.60;;;5.10;;
8462;SDS011;4268;52.506;13.462;2023-06-10T00:50:36;5.43;;;4.93;;
8462;SDS011;4268;52.506;13.462;2023-06-10T00:53:04;8.33;;;6.00;;
8462;SDS011;4268;52.506;13.462;2023-06-10T00:55:30;6.53;;;5.93;;
8462;SDS011;4268;52.506;13.462;2023-06-10T00:57:57;6.00;;;5.50;;
8462;SDS011;4268;52.506;13.462;2023-06-10T01:00:23;6.30;;;5.80;;
8462;SDS011;4268;52.506;13.462;2023-06-10T01:02:49;6.63;;;6.10;;
8462;SDS011;4268;52.506;13.462;2023-06-10T01:05:17;6.37;;;5.77;;
8462;SDS011;4268;52.506;13.462;2023-06-10T01:07:47;7.47;;;6.87;;
8462;SDS011;4268;52.506;13.462;2023-06-10T01:13:11;7.27;;;6.40;;
8462;SDS011;4268;52.506;13.462;2023-06-10T01:15:38;8.83;;;8.13;;
8462;SDS011;4268;52.506;13.462;2023-06-10T01:18:05;7.63;;;6.93;;
8462;SDS011;4268;52.506;13.462;2023-06-10T01:20:34;7.17;;;6.37;;
8462;SDS011;4268;52.506;13.462;2023-06-10T01:23:04;8.10;;;6.73;;
8462;SDS011;4268;52.506;13.462;2023-06-10T01:25:31;7.63;;;6.87;;
8462;SDS011;4268;52.506;13.462;2023-06-10T01:30:27;7.33;;;6.63;;
8462;SDS011;4268;52.506;13.462;2023-06-10T01:32:55;7.10;;;6.57;;
8462;SDS011;4268;52.506;13.462;2023-06-10T01:35:24;7.07;;;6.47;;
8462;SDS011;4268;52.506;13.462;2023-06-10T01:37:51;7.43;;;6.73;;
8462;SDS011;4268;52.506;13.462;2023-06-10T01:40:19;7.60;;;6.50;;
8462;SDS011;4268;52.506;13.462;2023-06-10T01:42:45;7.60;;;6.27;;
8462;SDS011;4268;52.506;13.462;2023-06-10T01:45:11;7.30;;;6.70;;
8462;SDS011;4268;52.506;13.462;2023-06-10T01:47:36;6.87;;;6.30;;
8462;SDS011;4268;52.506;13.462;2023-06-10T01:50:02;7.43;;;6.73;;
8462;SDS011;4268;52.506;13.462;2023-06-10T01:52:27;6.97;;;6.37;;
8462;SDS011;4268;52.506;13.462;2023-06-10T01:54:53;7.40;;;6.80;;
8462;SDS011;4268;52.506;13.462;2023-06-10T01:57:18;6.13;;;5.63;;
8462;SDS011;4268;52.506;13.462;2023-06-10T01:59:44;7.23;;;6.50;;
8462;SDS011;4268;52.506;13.462;2023-06-10T02:02:11;6.67;;;6.13;;
8462;SDS011;4268;52.506;13.462;2023-06-10T02:04:36;6.83;;;6.23;;
8462;SDS011;4268;52.506;13.462;2023-06-10T02:07:02;6.47;;;5.87;;
8462;SDS011;4268;52.506;13.462;2023-06-10T02:09:29;6.40;;;5.87;;
8462;SDS011;4268;52.506;13.462;2023-06-10T02:11:55;6.80;;;6.20;;
8462;SDS011;4268;52.506;13.462;2023-06-10T02:14:20;6.57;;;5.97;;
8462;SDS011;4268;52.506;13.462;2023-06-10T02:16:46;7.30;;;6.67;;
8462;SDS011;4268;52.506;13.462;2023-06-10T02:19:11;6.53;;;5.80;;
8462;SDS011;4268;52.506;13.462;2023-06-10T02:21:37;6.60;;;6.03;;
8462;SDS011;4268;52.506;13.462;2023-06-10T02:24:03;6.20;;;5.70;;
8462;SDS011;4268;52.506;13.462;2023-06-10T02:26:29;7.07;;;6.17;;
8462;SDS011;4268;52.506;13.462;2023-06-10T02:28:55;6.40;;;5.80;;
8462;SDS011;4268;52.506;13.462;2023-06-10T02:31:20;6.07;;;5.57;;
8462;SDS011;4268;52.506;13.462;2023-06-10T02:33:46;6.20;;;5.60;;
8462;SDS011;4268;52.506;13.462;2023-06-10T02:36:11;6.67;;;6.07;;
8462;SDS011;4268;52.506;13.462;2023-06-10T02:38:41;6.50;;;5.90;;
8462;SDS011;4268;52.506;13.462;2023-06-10T02:41:07;7.50;;;6.87;;
8462;SDS011;4268;52.506;13.462;2023-06-10T02:43:32;7.60;;;6.90;;
8462;SDS011;4268;52.506;13.462;2023-06-10T02:45:58;8.00;;;7.20;;
8462;SDS011;4268;52.506;13.462;2023-06-10T02:48:23;7.80;;;7.20;;
8462;SDS011;4268;52.506;13.462;2023-06-10T02:50:49;8.70;;;7.80;;
8462;SDS011;4268;52.506;13.462;2023-06-10T02:53:15;9.53;;;8.73;;
8462;SDS011;4268;52.506;13.462;2023-06-10T02:55:40;10.60;;;9.80;;
8462;SDS011;4268;52.506;13.462;2023-06-10T02:58:06;11.17;;;10.33;;
8462;SDS011;4268;52.506;13.462;2023-06-10T03:00:32;12.10;;;11.20;;
8462;SDS011;4268;52.506;13.462;2023-06-10T03:02:58;11.83;;;10.93;;
8462;SDS011;4268;52.506;13.462;2023-06-10T03:05:27;12.30;;;11.47;;
8462;SDS011;4268;52.506;13.462;2023-06-10T03:07:53;13.07;;;12.07;;
8462;SDS011;4268;52.506;13.462;2023-06-10T03:10:18;14.37;;;13.27;;
8462;SDS011;4268;52.506;13.462;2023-06-10T03:12:44;14.27;;;13.37;;
8462;SDS011;4268;52.506;13.462;2023-06-10T03:15:09;14.60;;;13.60;;
8462;SDS011;4268;52.506;13.462;2023-06-10T03:17:35;14.33;;;13.43;;
8462;SDS011;4268;52.506;13.462;2023-06-10T03:20:01;14.50;;;13.57;;
8462;SDS011;4268;52.506;13.462;2023-06-10T03:22:28;14.60;;;13.77;;
8462;SDS011;4268;52.506;13.462;2023-06-10T03:24:53;14.17;;;13.07;;
8462;SDS011;4268;52.506;13.462;2023-06-10T03:27:20;13.13;;;12.23;;
8462;SDS011;4268;52.506;13.462;2023-06-10T03:29:45;12.23;;;11.43;;
8462;SDS011;4268;52.506;13.462;2023-06-10T03:32:11;12.73;;;11.83;;
8462;SDS011;4268;52.506;13.462;2023-06-10T03:34:36;10.90;;;10.00;;
8462;SDS011;4268;52.506;13.462;2023-06-10T03:37:02;10.10;;;9.40;;
8462;SDS011;4268;52.506;13.462;2023-06-10T03:39:28;9.30;;;8.60;;
8462;SDS011;4268;52.506;13.462;2023-06-10T03:41:54;8.40;;;7.80;;
8462;SDS011;4268;52.506;13.462;2023-06-10T03:44:20;8.50;;;7.53;;
8462;SDS011;4268;52.506;13.462;2023-06-10T03:46:45;7.53;;;6.83;;
8462;SDS011;4268;52.506;13.462;2023-06-10T03:49:12;8.03;;;6.40;;
8462;SDS011;4268;52.506;13.462;2023-06-10T03:51:37;6.80;;;6.10;;
8462;SDS011;4268;52.506;13.462;2023-06-10T03:54:03;7.13;;;6.33;;
8462;SDS011;4268;52.506;13.462;2023-06-10T03:56:29;7.37;;;6.00;;
8462;SDS011;4268;52.506;13.462;2023-06-10T03:58:54;6.80;;;6.20;;
8462;SDS011;4268;52.506;13.462;2023-06-10T04:01:20;7.20;;;6.03;;
8462;SDS011;4268;52.506;13.462;2023-06-10T04:03:46;6.63;;;5.87;;
8462;SDS011;4268;52.506;13.462;2023-06-10T04:06:13;7.17;;;6.50;;
8462;SDS011;4268;52.506;13.462;2023-06-10T04:08:39;7.20;;;6.57;;
8462;SDS011;4268;52.506;13.462;2023-06-10T04:11:06;6.40;;;5.80;;
8462;SDS011;4268;52.506;13.462;2023-06-10T04:13:32;6.67;;;5.97;;
8462;SDS011;4268;52.506;13.462;2023-06-10T04:15:57;6.60;;;6.00;;
8462;SDS011;4268;52.506;13.462;2023-06-10T04:18:23;6.70;;;6.10;;
8462;SDS011;4268;52.506;13.462;2023-06-10T04:20:48;5.93;;;5.43;;
8462;SDS011;4268;52.506;13.462;2023-06-10T04:23:14;6.07;;;5.47;;
8462;SDS011;4268;52.506;13.462;2023-06-10T04:25:39;5.90;;;5.30;;
8462;SDS011;4268;52.506;13.462;2023-06-10T04:28:05;5.80;;;5.30;;
8462;SDS011;4268;52.506;13.462;2023-06-10T04:30:30;6.00;;;5.30;;
8462;SDS011;4268;52.506;13.462;2023-06-10T04:32:56;5.83;;;5.30;;
8462;SDS011;4268;52.506;13.462;2023-06-10T04:35:22;6.63;;;5.70;;
8462;SDS011;4268;52.506;13.462;2023-06-10T04:37:47;5.93;;;5.33;;
8462;SDS011;4268;52.506;13.462;2023-06-10T04:40:13;6.73;;;6.00;;
8462;SDS011;4268;52.506;13.462;2023-06-10T04:42:39;7.43;;;5.60;;
8462;SDS011;4268;52.506;13.462;2023-06-10T04:45:04;6.50;;;5.90;;
8462;SDS011;4268;52.506;13.462;2023-06-10T04:47:30;5.90;;;5.40;;
8462;SDS011;4268;52.506;13.462;2023-06-10T04:49:59;5.90;;;5.40;;
8462;SDS011;4268;52.506;13.462;2023-06-10T04:52:25;5.93;;;5.20;;
8462;SDS011;4268;52.506;13.462;2023-06-10T04:54:51;6.83;;;5.77;;
8462;SDS011;4268;52.506;13.462;2023-06-10T04:57:17;6.87;;;5.87;;
8462;SDS011;4268;52.506;13.462;2023-06-10T04:59:43;6.70;;;5.40;;
8462;SDS011;4268;52.506;13.462;2023-06-10T05:02:08;6.87;;;5.70;;
8462;SDS011;4268;52.506;13.462;2023-06-10T05:04:34;5.93;;;5.37;;
8462;SDS011;4268;52.506;13.462;2023-06-10T05:06:59;6.53;;;5.40;;
8462;SDS011;4268;52.506;13.462;2023-06-10T05:09:25;6.80;;;6.20;;
8462;SDS011;4268;52.506;13.462;2023-06-10T05:11:51;6.67;;;5.73;;
8462;SDS011;4268;52.506;13.462;2023-06-10T05:14:18;6.67;;;6.07;;
8462;SDS011;4268;52.506;13.462;2023-06-10T05:16:45;5.60;;;5.10;;
8462;SDS011;4268;52.506;13.462;2023-06-10T05:19:11;6.23;;;5.67;;
8462;SDS011;4268;52.506;13.462;2023-06-10T05:21:36;6.27;;;5.30;;
8462;SDS011;4268;52.506;13.462;2023-06-10T05:24:02;5.77;;;4.90;;
8462;SDS011;4268;52.506;13.462;2023-06-10T05:26:28;6.30;;;5.50;;
8462;SDS011;4268;52.506;13.462;2023-06-10T05:28:54;6.67;;;5.53;;
8462;SDS011;4268;52.506;13.462;2023-06-10T05:31:19;6.83;;;5.50;;
8462;SDS011;4268;52.506;13.462;2023-06-10T05:33:45;7.13;;;5.80;;
8462;SDS011;4268;52.506;13.462;2023-06-10T05:36:10;6.03;;;5.43;;
8462;SDS011;4268;52.506;13.462;2023-06-10T05:38:36;7.40;;;5.50;;
8462;SDS011;4268;52.506;13.462;2023-06-10T05:41:01;6.20;;;5.23;;
8462;SDS011;4268;52.506;13.462;2023-06-10T05:43:27;6.87;;;5.17;;
8462;SDS011;4268;52.506;13.462;2023-06-10T05:45:52;8.33;;;5.40;;
8462;SDS011;4268;52.506;13.462;2023-06-10T05:48:18;7.03;;;5.00;;
8462;SDS011;4268;52.506;13.462;2023-06-10T05:50:44;5.37;;;4.87;;
8462;SDS011;4268;52.506;13.462;2023-06-10T05:53:13;6.47;;;5.00;;
8462;SDS011;4268;52.506;13.462;2023-06-10T05:55:45;5.90;;;5.30;;
8462;SDS011;4268;52.506;13.462;2023-06-10T05:58:11;7.37;;;5.23;;
8462;SDS011;4268;52.506;13.462;2023-06-10T06:00:37;5.97;;;5.00;;
8462;SDS011;4268;52.506;13.462;2023-06-10T06:03:05;5.93;;;5.15;;
8462;SDS011;4268;52.506;13.462;2023-06-10T06:05:32;6.73;;;5.70;;
8462;SDS011;4268;52.506;13.462;2023-06-10T06:08:00;6.80;;;6.10;;
8462;SDS011;4268;52.506;13.462;2023-06-10T06:10:26;6.40;;;5.70;;
8462;SDS011;4268;52.506;13.462;2023-06-10T06:12:52;6.10;;;5.50;;
8462;SDS011;4268;52.506;13.462;2023-06-10T06:15:17;6.83;;;5.53;;
8462;SDS011;4268;52.506;13.462;2023-06-10T06:17:43;6.20;;;5.47;;
8462;SDS011;4268;52.506;13.462;2023-06-10T06:20:08;7.20;;;5.30;;
8462;SDS011;4268;52.506;13.462;2023-06-10T06:22:34;6.00;;;5.40;;
8462;SDS011;4268;52.506;13.462;2023-06-10T06:25:00;9.23;;;5.15;;
8462;SDS011;4268;52.506;13.462;2023-06-10T06:27:25;5.78;;;5.20;;
8462;SDS011;4268;52.506;13.462;2023-06-10T06:29:51;5.30;;;4.90;;
8462;SDS011;4268;52.506;13.462;2023-06-10T06:32:16;6.10;;;5.50;;
8462;SDS011;4268;52.506;13.462;2023-06-10T06:34:42;6.65;;;5.80;;
8462;SDS011;4268;52.506;13.462;2023-06-10T06:37:07;5.93;;;5.35;;
8462;SDS011;4268;52.506;13.462;2023-06-10T06:39:33;5.97;;;5.43;;
8462;SDS011;4268;52.506;13.462;2023-06-10T06:41:58;6.93;;;5.35;;
8462;SDS011;4268;52.506;13.462;2023-06-10T06:44:24;6.00;;;5.50;;
8462;SDS011;4268;52.506;13.462;2023-06-10T06:46:49;6.07;;;5.22;;
8462;SDS011;4268;52.506;13.462;2023-06-10T06:49:15;6.00;;;5.40;;
8462;SDS011;4268;52.506;13.462;2023-06-10T06:51:40;6.57;;;5.37;;
8462;SDS011;4268;52.506;13.462;2023-06-10T06:54:06;5.53;;;5.03;;
8462;SDS011;4268;52.506;13.462;2023-06-10T06:56:31;5.80;;;5.30;;
8462;SDS011;4268;52.506;13.462;2023-06-10T06:58:57;6.03;;;5.53;;
8462;SDS011;4268;52.506;13.462;2023-06-10T07:01:22;6.57;;;5.38;;
8462;SDS011;4268;52.506;13.462;2023-06-10T07:03:48;6.72;;;5.68;;
8462;SDS011;4268;52.506;13.462;2023-06-10T07:06:13;6.95;;;5.45;;
8462;SDS011;4268;52.506;13.462;2023-06-10T07:08:39;6.20;;;5.63;;
8462;SDS011;4268;52.506;13.462;2023-06-10T07:11:04;5.93;;;5.43;;
8462;SDS011;4268;52.506;13.462;2023-06-10T07:13:30;6.25;;;5.72;;
8462;SDS011;4268;52.506;13.462;2023-06-10T07:15:55;6.40;;;5.78;;
8462;SDS011;4268;52.506;13.462;2023-06-10T07:18:21;6.50;;;5.90;;
8462;SDS011;4268;52.506;13.462;2023-06-10T07:20:46;9.20;;;8.40;;
8462;SDS011;4268;52.506;13.462;2023-06-10T07:23:12;7.68;;;7.00;;
8462;SDS011;4268;52.506;13.462;2023-06-10T07:25:37;6.80;;;6.20;;
8462;SDS011;4268;52.506;13.462;2023-06-10T07:28:03;7.68;;;6.75;;
8462;SDS011;4268;52.506;13.462;2023-06-10T07:30:29;7.85;;;6.10;;
8462;SDS011;4268;52.506;13.462;2023-06-10T07:32:54;6.30;;;5.70;;
8462;SDS011;4268;52.506;13.462;2023-06-10T07:35:20;5.93;;;5.15;;
8462;SDS011;4268;52.506;13.462;2023-06-10T07:37:46;7.00;;;5.55;;
8462;SDS011;4268;52.506;13.462;2023-06-10T07:40:11;6.22;;;5.72;;
8462;SDS011;4268;52.506;13.462;2023-06-10T07:42:37;5.85;;;5.35;;
8462;SDS011;4268;52.506;13.462;2023-06-10T07:45:03;7.10;;;6.35;;
8462;SDS011;4268;52.506;13.462;2023-06-10T07:47:29;6.95;;;6.30;;
8462;SDS011;4268;52.506;13.462;2023-06-10T07:49:55;7.55;;;6.65;;
8462;SDS011;4268;52.506;13.462;2023-06-10T07:52:21;7.20;;;6.50;;
8462;SDS011;4268;52.506;13.462;2023-06-10T07:54:46;7.45;;;6.85;;
8462;SDS011;4268;52.506;13.462;2023-06-10T07:57:13;6.97;;;6.35;;
8462;SDS011;4268;52.506;13.462;2023-06-10T07:59:38;6.88;;;6.38;;
8462;SDS011;4268;52.506;13.462;2023-06-10T08:02:04;7.93;;;5.70;;
8462;SDS011;4268;52.506;13.462;2023-06-10T08:04:30;7.53;;;5.35;;
8462;SDS011;4268;52.506;13.462;2023-06-10T08:06:56;7.57;;;5.60;;
8462;SDS011;4268;52.506;13.462;2023-06-10T08:09:24;7.85;;;5.82;;
8462;SDS011;4268;52.506;13.462;2023-06-10T08:11:50;8.30;;;5.82;;
8462;SDS011;4268;52.506;13.462;2023-06-10T08:14:15;6.03;;;5.53;;
8462;SDS011;4268;52.506;13.462;2023-06-10T08:16:42;6.25;;;5.65;;
8462;SDS011;4268;52.506;13.462;2023-06-10T08:19:08;6.22;;;5.60;;
8462;SDS011;4268;52.506;13.462;2023-06-10T08:21:34;7.20;;;5.65;;
8462;SDS011;4268;52.506;13.462;2023-06-10T08:24:02;8.70;;;6.10;;
8462;SDS011;4268;52.506;13.462;2023-06-10T08:26:28;6.68;;;5.97;;
8462;SDS011;4268;52.506;13.462;2023-06-10T08:28:54;7.03;;;6.43;;
8462;SDS011;4268;52.506;13.462;2023-06-10T08:31:20;7.32;;;6.22;;
8462;SDS011;4268;52.506;13.462;2023-06-10T08:33:46;6.88;;;6.28;;
8462;SDS011;4268;52.506;13.462;2023-06-10T08:36:13;6.25;;;5.63;;
8462;SDS011;4268;52.506;13.462;2023-06-10T08:38:39;6.13;;;5.63;;
8462;SDS011;4268;52.506;13.462;2023-06-10T08:41:05;5.95;;;5.45;;
8462;SDS011;4268;52.506;13.462;2023-06-10T08:43:34;6.22;;;5.72;;
8462;SDS011;4268;52.506;13.462;2023-06-10T08:46:16;5.68;;;5.18;;
8462;SDS011;4268;52.506;13.462;2023-06-10T08:48:43;7.47;;;5.18;;
8462;SDS011;4268;52.506;13.462;2023-06-10T08:51:16;5.57;;;5.07;;
8462;SDS011;4268;52.506;13.462;2023-06-10T08:53:57;6.15;;;5.22;;
8462;SDS011;4268;52.506;13.462;2023-06-10T08:56:26;6.22;;;5.55;;
8462;SDS011;4268;52.506;13.462;2023-06-10T08:58:57;5.65;;;5.15;;
8462;SDS011;4268;52.506;13.462;2023-06-10T09:01:24;6.65;;;5.97;;
8462;SDS011;4268;52.506;13.462;2023-06-10T09:03:54;8.10;;;5.40;;
8462;SDS011;4268;52.506;13.462;2023-06-10T09:06:21;6.65;;;5.30;;
8462;SDS011;4268;52.506;13.462;2023-06-10T09:08:47;5.75;;;5.25;;
8462;SDS011;4268;52.506;13.462;2023-06-10T09:11:15;7.82;;;5.43;;
8462;SDS011;4268;52.506;13.462;2023-06-10T09:13:44;6.20;;;5.57;;
8462;SDS011;4268;52.506;13.462;2023-06-10T09:16:23;6.50;;;5.50;;
8462;SDS011;4268;52.506;13.462;2023-06-10T09:18:50;5.90;;;5.40;;
8462;SDS011;4268;52.506;13.462;2023-06-10T09:21:21;6.57;;;5.68;;
8462;SDS011;4268;52.506;13.462;2023-06-10T09:23:47;6.03;;;5.53;;
8462;SDS011;4268;52.506;13.462;2023-06-10T09:26:13;5.60;;;5.10;;
8462;SDS011;4268;52.506;13.462;2023-06-10T09:28:38;5.70;;;5.28;;
8462;SDS011;4268;52.506;13.462;2023-06-10T09:31:06;5.40;;;4.55;;
8462;SDS011;4268;52.506;13.462;2023-06-10T09:33:32;5.03;;;4.60;;
8462;SDS011;4268;52.506;13.462;2023-06-10T09:36:01;5.68;;;5.10;;
8462;SDS011;4268;52.506;13.462;2023-06-10T09:38:31;5.60;;;5.07;;
8462;SDS011;4268;52.506;13.462;2023-06-10T09:40:57;5.82;;;5.22;;
8462;SDS011;4268;52.506;13.462;2023-06-10T09:43:24;5.85;;;5.38;;
8462;SDS011;4268;52.506;13.462;2023-06-10T09:46:13;5.35;;;4.85;;
8462;SDS011;4268;52.506;13.462;2023-06-10T09:48:41;4.93;;;4.53;;
8462;SDS011;4268;52.506;13.462;2023-06-10T09:51:09;5.63;;;5.05;;
8462;SDS011;4268;52.506;13.462;2023-06-10T09:53:35;5.40;;;5.00;;
8462;SDS011;4268;52.506;13.462;2023-06-10T09:56:00;5.68;;;5.18;;
8462;SDS011;4268;52.506;13.462;2023-06-10T09:58:38;7.38;;;5.03;;
8462;SDS011;4268;52.506;13.462;2023-06-10T10:01:11;5.60;;;5.10;;
8462;SDS011;4268;52.506;13.462;2023-06-10T10:03:49;8.45;;;5.53;;
8462;SDS011;4268;52.506;13.462;2023-06-10T10:06:16;9.68;;;5.30;;
8462;SDS011;4268;52.506;13.462;2023-06-10T10:08:43;5.68;;;5.13;;
8462;SDS011;4268;52.506;13.462;2023-06-10T10:11:09;5.47;;;5.07;;
8462;SDS011;4268;52.506;13.462;2023-06-10T10:13:36;5.72;;;5.05;;
8462;SDS011;4268;52.506;13.462;2023-06-10T10:16:22;5.57;;;5.07;;
8462;SDS011;4268;52.506;13.462;2023-06-10T10:18:54;5.50;;;5.00;;
8462;SDS011;4268;52.506;13.462;2023-06-10T10:21:22;5.32;;;4.93;;
8462;SDS011;4268;52.506;13.462;2023-06-10T10:23:52;5.95;;;5.35;;
8462;SDS011;4268;52.506;13.462;2023-06-10T10:26:25;5.47;;;5.00;;
8462;SDS011;4268;52.506;13.462;2023-06-10T10:28:53;4.78;;;4.40;;
8462;SDS011;4268;52.506;13.462;2023-06-10T10:31:43;4.88;;;4.47;;
8462;SDS011;4268;52.506;13.462;2023-06-10T10:34:12;4.85;;;4.38;;
8462;SDS011;4268;52.506;13.462;2023-06-10T10:36:40;5.78;;;4.35;;
8462;SDS011;4268;52.506;13.462;2023-06-10T10:39:06;4.45;;;4.05;;
8462;SDS011;4268;52.506;13.462;2023-06-10T10:41:32;4.50;;;4.20;;
8462;SDS011;4268;52.506;13.462;2023-06-10T10:43:58;4.55;;;4.15;;
8462;SDS011;4268;52.506;13.462;2023-06-10T10:46:25;4.22;;;3.90;;
8462;SDS011;4268;52.506;13.462;2023-06-10T10:48:54;4.63;;;4.30;;
8462;SDS011;4268;52.506;13.462;2023-06-10T10:51:22;4.35;;;4.05;;
8462;SDS011;4268;52.506;13.462;2023-06-10T10:56:40;4.00;;;3.80;;
8462;SDS011;4268;52.506;13.462;2023-06-10T11:02:17;4.20;;;3.90;;
8462;SDS011;4268;52.506;13.462;2023-06-10T11:04:46;4.30;;;3.90;;
8462;SDS011;4268;52.506;13.462;2023-06-10T11:07:12;4.72;;;4.43;;
8462;SDS011;4268;52.506;13.462;2023-06-10T11:09:57;4.85;;;4.40;;
8462;SDS011;4268;52.506;13.462;2023-06-10T11:15:24;4.63;;;4.22;;
8462;SDS011;4268;52.506;13.462;2023-06-10T11:20:51;4.28;;;4.00;;
8462;SDS011;4268;52.506;13.462;2023-06-10T11:26:12;4.72;;;4.32;;
8462;SDS011;4268;52.506;13.462;2023-06-10T11:29:02;4.22;;;3.90;;
8462;SDS011;4268;52.506;13.462;2023-06-10T11:31:29;5.13;;;4.20;;
8462;SDS011;4268;52.506;13.462;2023-06-10T11:33:59;4.55;;;4.15;;
8462;SDS011;4268;52.506;13.462;2023-06-10T11:36:26;4.68;;;4.28;;
8462;SDS011;4268;52.506;13.462;2023-06-10T11:38:53;4.28;;;3.90;;
8462;SDS011;4268;52.506;13.462;2023-06-10T11:41:23;4.55;;;4.00;;
8462;SDS011;4268;52.506;13.462;2023-06-10T11:43:50;5.68;;;4.30;;
8462;SDS011;4268;52.506;13.462;2023-06-10T11:46:17;4.65;;;4.25;;
8462;SDS011;4268;52.506;13.462;2023-06-10T11:48:52;4.78;;;4.38;;
8462;SDS011;4268;52.506;13.462;2023-06-10T11:51:19;4.45;;;4.15;;
8462;SDS011;4268;52.506;13.462;2023-06-10T11:53:45;5.43;;;4.95;;
8462;SDS011;4268;52.506;13.462;2023-06-10T11:56:12;4.70;;;4.35;;
8462;SDS011;4268;52.506;13.462;2023-06-10T11:58:38;4.95;;;4.55;;
8462;SDS011;4268;52.506;13.462;2023-06-10T12:01:08;4.93;;;4.60;;
8462;SDS011;4268;52.506;13.462;2023-06-10T12:03:37;5.65;;;5.22;;
8462;SDS011;4268;52.506;13.462;2023-06-10T12:06:04;5.35;;;4.85;;
8462;SDS011;4268;52.506;13.462;2023-06-10T12:08:30;5.05;;;4.38;;
8462;SDS011;4268;52.506;13.462;2023-06-10T12:10:57;9.60;;;5.35;;
8462;SDS011;4268;52.506;13.462;2023-06-10T12:13:23;4.97;;;4.50;;
8462;SDS011;4268;52.506;13.462;2023-06-10T12:15:52;5.20;;;4.63;;
8462;SDS011;4268;52.506;13.462;2023-06-10T12:18:22;5.97;;;4.80;;
8462;SDS011;4268;52.506;13.462;2023-06-10T12:20:48;5.05;;;4.60;;
8462;SDS011;4268;52.506;13.462;2023-06-10T12:23:15;5.30;;;4.80;;
8462;SDS011;4268;52.506;13.462;2023-06-10T12:25:51;5.32;;;4.93;;
8462;SDS011;4268;52.506;13.462;2023-06-10T12:28:20;5.68;;;5.28;;
8462;SDS011;4268;52.506;13.462;2023-06-10T12:30:46;5.40;;;4.90;;
8462;SDS011;4268;52.506;13.462;2023-06-10T12:35:50;5.82;;;5.40;;
8462;SDS011;4268;52.506;13.462;2023-06-10T12:38:25;5.60;;;5.20;;
8462;SDS011;4268;52.506;13.462;2023-06-10T12:40:57;5.68;;;5.28;;
8462;SDS011;4268;52.506;13.462;2023-06-10T12:43:27;5.47;;;5.07;;
8462;SDS011;4268;52.506;13.462;2023-06-10T12:45:53;5.85;;;5.35;;
8462;SDS011;4268;52.506;13.462;2023-06-10T12:48:23;6.18;;;5.68;;
8462;SDS011;4268;52.506;13.462;2023-06-10T12:50:52;7.22;;;5.45;;
8462;SDS011;4268;52.506;13.462;2023-06-10T12:53:19;6.20;;;5.78;;
8462;SDS011;4268;52.506;13.462;2023-06-10T12:55:46;6.03;;;5.57;;
8462;SDS011;4268;52.506;13.462;2023-06-10T12:58:12;7.65;;;6.07;;
8462;SDS011;4268;52.506;13.462;2023-06-10T13:00:38;7.28;;;5.80;;
8462;SDS011;4268;52.506;13.462;2023-06-10T13:03:04;6.10;;;5.60;;
8462;SDS011;4268;52.506;13.462;2023-06-10T13:05:31;6.28;;;5.80;;
8462;SDS011;4268;52.506;13.462;2023-06-10T13:07:58;5.90;;;5.40;;
8462;SDS011;4268;52.506;13.462;2023-06-10T13:10:24;6.53;;;5.95;;
8462;SDS011;4268;52.506;13.462;2023-06-10T13:12:49;6.47;;;6.00;;
8462;SDS011;4268;52.506;13.462;2023-06-10T13:15:15;6.10;;;5.70;;
8462;SDS011;4268;52.506;13.462;2023-06-10T13:17:42;6.72;;;6.13;;
8462;SDS011;4268;52.506;13.462;2023-06-10T13:20:09;6.30;;;5.80;;
8462;SDS011;4268;52.506;13.462;2023-06-10T13:22:34;6.47;;;6.00;;
8462;SDS011;4268;52.506;13.462;2023-06-10T13:25:04;6.40;;;6.00;;
8462;SDS011;4268;52.506;13.462;2023-06-10T13:27:32;6.30;;;5.82;;
8462;SDS011;4268;52.506;13.462;2023-06-10T13:29:58;6.07;;;5.68;;
8462;SDS011;4268;52.506;13.462;2023-06-10T13:32:24;6.28;;;5.88;;
8462;SDS011;4268;52.506;13.462;2023-06-10T13:34:49;6.10;;;5.70;;
8462;SDS011;4268;52.506;13.462;2023-06-10T13:37:15;6.00;;;5.60;;
8462;SDS011;4268;52.506;13.462;2023-06-10T13:39:44;6.13;;;5.70;;
8462;SDS011;4268;52.506;13.462;2023-06-10T13:42:12;6.13;;;5.63;;
8462;SDS011;4268;52.506;13.462;2023-06-10T13:44:38;6.43;;;5.82;;
8462;SDS011;4268;52.506;13.462;2023-06-10T13:47:03;6.22;;;5.70;;
8462;SDS011;4268;52.506;13.462;2023-06-10T13:49:29;6.07;;;5.57;;
8462;SDS011;4268;52.506;13.462;2023-06-10T13:51:55;6.53;;;5.82;;
8462;SDS011;4268;52.506;13.462;2023-06-10T13:54:21;6.78;;;6.20;;
8462;SDS011;4268;52.506;13.462;2023-06-10T13:56:46;6.18;;;5.68;;
8462;SDS011;4268;52.506;13.462;2023-06-10T13:59:12;6.55;;;5.95;;
8462;SDS011;4268;52.506;13.462;2023-06-10T14:01:38;5.97;;;5.47;;
8462;SDS011;4268;52.506;13.462;2023-06-10T14:04:04;6.30;;;5.40;;
8462;SDS011;4268;52.506;13.462;2023-06-10T14:06:30;6.10;;;5.65;;
8462;SDS011;4268;52.506;13.462;2023-06-10T14:08:55;6.88;;;5.30;;
8462;SDS011;4268;52.506;13.462;2023-06-10T14:11:21;6.13;;;5.63;;
8462;SDS011;4268;52.506;13.462;2023-06-10T14:13:46;5.95;;;5.55;;
8462;SDS011;4268;52.506;13.462;2023-06-10T14:16:12;5.78;;;5.38;;
8462;SDS011;4268;52.506;13.462;2023-06-10T14:18:38;6.03;;;5.50;;
8462;SDS011;4268;52.506;13.462;2023-06-10T14:21:03;5.50;;;5.10;;
8462;SDS011;4268;52.506;13.462;2023-06-10T14:23:29;6.30;;;5.57;;
8462;SDS011;4268;52.506;13.462;2023-06-10T14:25:54;5.82;;;5.32;;
8462;SDS011;4268;52.506;13.462;2023-06-10T14:28:20;5.65;;;5.18;;
8462;SDS011;4268;52.506;13.462;2023-06-10T14:30:45;5.38;;;4.97;;
8462;SDS011;4268;52.506;13.462;2023-06-10T14:33:11;6.22;;;5.63;;
8462;SDS011;4268;52.506;13.462;2023-06-10T14:35:36;4.93;;;4.53;;
8462;SDS011;4268;52.506;13.462;2023-06-10T14:38:02;6.22;;;4.70;;
8462;SDS011;4268;52.506;13.462;2023-06-10T14:40:27;5.38;;;4.88;;
8462;SDS011;4268;52.506;13.462;2023-06-10T14:42:54;5.07;;;4.68;;
8462;SDS011;4268;52.506;13.462;2023-06-10T14:45:20;5.15;;;4.80;;
8462;SDS011;4268;52.506;13.462;2023-06-10T14:47:45;5.22;;;4.82;;
8462;SDS011;4268;52.506;13.462;2023-06-10T14:50:12;6.85;;;5.10;;
8462;SDS011;4268;52.506;13.462;2023-06-10T14:52:37;5.22;;;4.75;;
8462;SDS011;4268;52.506;13.462;2023-06-10T14:55:03;5.85;;;5.28;;
8462;SDS011;4268;52.506;13.462;2023-06-10T14:57:29;5.90;;;5.30;;
8462;SDS011;4268;52.506;13.462;2023-06-10T14:59:54;4.95;;;4.55;;
8462;SDS011;4268;52.506;13.462;2023-06-10T15:02:21;6.07;;;4.90;;
8462;SDS011;4268;52.506;13.462;2023-06-10T15:04:47;5.15;;;4.70;;
8462;SDS011;4268;52.506;13.462;2023-06-10T15:07:12;5.45;;;4.90;;
8462;SDS011;4268;52.506;13.462;2023-06-10T15:09:40;5.38;;;4.80;;
8462;SDS011;4268;52.506;13.462;2023-06-10T15:12:07;5.43;;;4.70;;
8462;SDS011;4268;52.506;13.462;2023-06-10T15:14:33;5.00;;;4.65;;
8462;SDS011;4268;52.506;13.462;2023-06-10T15:16:58;6.53;;;4.57;;
8462;SDS011;4268;52.506;13.462;2023-06-10T15:19:25;5.07;;;4.55;;
8462;SDS011;4268;52.506;13.462;2023-06-10T15:21:51;5.40;;;4.55;;